Time;durP1;ratioP1;P1;durP2;ratioP2;P2;SDS_P1;SDS_P2;PMS_P1;PMS_P2;Temp;Humidity;BMP_temperature;BMP_pressure;BME280_temperature;BME280_humidity;BME280_pressure;Samples;Min_cycle;Max_cycle;Signal;HPM_P1;HPM_P2
2023/10/16 00:00:58;;;;;;;1.85;1.15;;;;;;;6.55;53.65;97807.00;4921310;28;20260;-79
2023/10/16 00:03:23;;;;;;;3.10;1.20;;;;;;;6.51;54.56;97809.19;4882666;28;20204;-79
2023/10/16 00:05:54;;;;;;;2.83;1.50;;;;;;;6.45;54.91;97809.22;4909000;28;20221;-79
2023/10/16 00:08:19;;;;;;;1.50;0.98;;;;;;;6.51;54.94;97808.38;4908496;28;20185;-79
2023/10/16 00:10:59;;;;;;;4.60;1.60;;;;;;;6.67;54.26;97797.59;4896444;28;20389;-79
2023/10/16 00:13:28;;;;;;;1.73;1.00;;;;;;;6.46;54.68;97797.84;4919782;28;20199;-79
2023/10/16 00:16:02;;;;;;;1.67;1.13;;;;;;;6.57;54.71;97807.59;4909488;28;20192;-79
2023/10/16 00:18:33;;;;;;;1.77;1.13;;;;;;;6.48;54.95;97808.81;4908906;28;20363;-79
2023/10/16 00:20:58;;;;;;;1.40;1.10;;;;;;;6.29;55.63;97795.69;4908075;28;20665;-79
2023/10/16 00:23:30;;;;;;;2.10;1.15;;;;;;;6.41;55.06;97806.22;4910696;28;20181;-79
2023/10/16 00:25:58;;;;;;;2.47;1.42;;;;;;;6.35;54.75;97802.63;4916435;28;20239;-79
2023/10/16 00:28:23;;;;;;;2.10;1.10;;;;;;;6.30;55.07;97807.63;4889857;28;20769;-79
2023/10/16 00:30:50;;;;;;;3.22;1.30;;;;;;;6.33;55.02;97811.59;4923315;28;20275;-79
2023/10/16 00:33:15;;;;;;;2.63;1.25;;;;;;;6.27;55.16;97808.03;4920724;28;20204;-79
2023/10/16 00:35:41;;;;;;;2.75;0.88;;;;;;;6.15;55.26;97800.09;4890224;28;20652;-79
2023/10/16 00:38:13;;;;;;;3.25;1.00;;;;;;;6.09;55.27;97795.72;4904902;28;20310;-79
2023/10/16 00:43:28;;;;;;;2.05;0.80;;;;;;;6.06;55.68;97788.34;4923461;28;20216;-79
2023/10/16 00:45:59;;;;;;;1.63;0.80;;;;;;;6.03;57.02;97791.31;4915623;28;20199;-79
2023/10/16 00:48:25;;;;;;;2.67;1.00;;;;;;;6.11;56.06;97788.53;4931341;28;20294;-79
2023/10/16 00:50:51;;;;;;;1.20;0.60;;;;;;;6.12;55.77;97779.03;4931340;28;20228;-79
2023/10/16 00:53:20;;;;;;;1.42;0.88;;;;;;;6.23;56.02;97780.19;4913196;28;20702;-79
2023/10/16 00:55:48;;;;;;;2.03;1.02;;;;;;;6.09;56.10;97785.38;4924196;28;20161;-79
2023/10/16 00:58:16;;;;;;;2.03;0.90;;;;;;;6.21;57.15;97777.03;4929076;28;20729;-79
2023/10/16 01:00:45;;;;;;;1.63;0.63;;;;;;;6.14;56.31;97780.38;4912865;28;20173;-78
2023/10/16 01:03:16;;;;;;;2.95;0.80;;;;;;;6.26;55.33;97783.16;4912231;28;20694;-78
2023/10/16 01:05:42;;;;;;;3.90;1.08;;;;;;;6.15;55.45;97768.25;4907767;28;20193;-79
2023/10/16 01:08:11;;;;;;;2.35;0.68;;;;;;;6.23;55.27;97772.44;4920739;28;20457;-79
2023/10/16 01:10:41;;;;;;;1.15;0.70;;;;;;;6.14;55.75;97777.81;4904476;28;20177;-79
2023/10/16 01:13:13;;;;;;;1.08;0.70;;;;;;;6.34;55.32;97770.03;4926666;28;20609;-78
2023/10/16 01:15:50;;;;;;;1.25;0.70;;;;;;;6.30;55.00;97758.47;4927920;28;20179;-79
2023/10/16 01:18:19;;;;;;;2.55;0.95;;;;;;;6.30;55.05;97770.63;4920355;28;20245;-79
2023/10/16 01:20:48;;;;;;;1.52;0.70;;;;;;;6.20;56.00;97776.19;4912478;28;20374;-79
2023/10/16 01:23:18;;;;;;;2.33;0.70;;;;;;;6.27;55.90;97771.03;4909854;28;20184;-79
2023/10/16 01:25:47;;;;;;;2.15;0.70;;;;;;;6.15;56.38;97755.31;4909922;28;20308;-79
2023/10/16 01:28:17;;;;;;;1.13;0.60;;;;;;;6.22;56.39;97771.66;4913083;28;20300;-79
2023/10/16 01:30:49;;;;;;;2.08;0.73;;;;;;;6.42;55.65;97774.19;4916085;28;20189;-79
2023/10/16 01:33:19;;;;;;;2.38;1.00;;;;;;;6.50;55.19;97762.84;4886389;28;20170;-79
2023/10/16 01:35:48;;;;;;;0.80;0.40;;;;;;;6.40;55.40;97765.84;4922707;28;20209;-79
2023/10/16 01:38:17;;;;;;;3.00;0.60;;;;;;;6.25;55.86;97762.69;4911476;28;20247;-79
2023/10/16 01:41:09;;;;;;;1.70;0.65;;;;;;;6.15;57.26;97763.91;4899621;28;20088;-78
2023/10/16 01:43:38;;;;;;;0.98;0.50;;;;;;;6.10;57.32;97758.53;4920656;28;20656;-78
2023/10/16 01:46:08;;;;;;;1.65;0.60;;;;;;;6.14;57.17;97767.47;4930556;28;20169;-78
2023/10/16 01:48:39;;;;;;;0.80;0.60;;;;;;;6.17;56.51;97761.91;4908309;28;20291;-78
2023/10/16 01:51:09;;;;;;;0.88;0.52;;;;;;;6.06;56.33;97744.41;4914103;28;20170;-79
2023/10/16 01:53:42;;;;;;;1.92;0.75;;;;;;;6.11;57.18;97739.41;4911209;28;20046;-79
2023/10/16 01:56:14;;;;;;;2.70;0.70;;;;;;;6.01;57.37;97746.78;4927496;28;20356;-79
2023/10/16 01:58:44;;;;;;;1.77;0.80;;;;;;;6.02;56.82;97743.22;4894045;28;20313;-79
2023/10/16 02:01:17;;;;;;;4.35;1.02;;;;;;;6.05;56.86;97742.81;4922149;28;20316;-79
2023/10/16 02:03:45;;;;;;;2.90;0.60;;;;;;;5.87;56.81;97740.81;4918205;28;20282;-79
2023/10/16 02:06:14;;;;;;;1.40;0.50;;;;;;;5.75;56.68;97726.91;4920397;28;20291;-79
2023/10/16 02:08:40;;;;;;;0.63;0.43;;;;;;;5.74;56.99;97739.03;4922672;28;20685;-79
2023/10/16 02:11:07;;;;;;;1.45;0.50;;;;;;;5.61;56.94;97736.44;4906874;28;20236;-79
2023/10/16 02:13:35;;;;;;;0.90;0.50;;;;;;;5.61;57.00;97726.13;4927484;28;20113;-79
2023/10/16 02:16:02;;;;;;;2.03;0.60;;;;;;;5.61;57.51;97726.13;4911491;28;20239;-79
2023/10/16 02:18:36;;;;;;;1.10;0.40;;;;;;;5.54;57.29;97715.00;4931704;28;20208;-79
2023/10/16 02:21:02;;;;;;;1.38;0.90;;;;;;;5.63;56.73;97724.13;4912234;28;20238;-79
2023/10/16 02:23:30;;;;;;;3.10;0.60;;;;;;;5.59;56.54;97728.09;4894742;28;20296;-79
2023/10/16 02:25:59;;;;;;;1.13;0.60;;;;;;;5.48;57.17;97726.09;4904848;28;20391;-79
2023/10/16 02:28:25;;;;;;;1.48;0.60;;;;;;;5.54;56.55;97726.09;4929557;28;20212;-79
2023/10/16 02:30:50;;;;;;;1.05;0.60;;;;;;;5.53;56.69;97729.69;4928346;28;20635;-78
2023/10/16 02:33:22;;;;;;;2.10;0.73;;;;;;;5.59;56.75;97726.31;4923347;28;20337;-79
2023/10/16 02:35:49;;;;;;;2.33;0.70;;;;;;;5.71;56.33;97731.69;4924472;28;20684;-78
2023/10/16 02:38:23;;;;;;;1.63;0.70;;;;;;;5.58;56.44;97723.91;4938967;28;20193;-79
2023/10/16 02:40:50;;;;;;;1.00;0.70;;;;;;;5.55;56.53;97722.53;4928003;28;20375;-78
2023/10/16 02:43:18;;;;;;;1.52;0.77;;;;;;;5.60;56.88;97729.69;4928887;28;20631;-79
2023/10/16 02:45:51;;;;;;;3.60;0.45;;;;;;;5.63;57.03;97724.13;4926013;28;20188;-78
2023/10/16 02:48:18;;;;;;;1.30;0.60;;;;;;;5.72;56.93;97722.91;4930868;28;20783;-78
2023/10/16 02:50:45;;;;;;;1.20;0.60;;;;;;;5.71;56.61;97717.97;4923621;28;20290;-78
2023/10/16 02:53:11;;;;;;;1.85;0.50;;;;;;;5.80;56.93;97720.13;4925256;28;20678;-78
2023/10/16 02:55:40;;;;;;;1.40;0.60;;;;;;;5.73;56.38;97723.72;4891786;28;20185;-78
2023/10/16 02:58:11;;;;;;;1.83;0.90;;;;;;;5.67;56.74;97716.78;4915089;28;20193;-78
2023/10/16 03:00:38;;;;;;;0.95;0.60;;;;;;;5.65;57.22;97708.44;4927008;28;20139;-78
2023/10/16 03:03:06;;;;;;;1.83;0.80;;;;;;;5.68;57.40;97721.75;4908278;28;20200;-78
2023/10/16 03:05:32;;;;;;;1.38;0.57;;;;;;;5.62;57.19;97715.59;4910598;28;20421;-77
2023/10/16 03:07:57;;;;;;;1.33;0.82;;;;;;;5.51;58.14;97699.88;4929055;28;20085;-78
2023/10/16 03:10:31;;;;;;;1.92;0.80;;;;;;;5.62;58.24;97707.03;4921051;28;20277;-78
2023/10/16 03:13:00;;;;;;;1.23;0.90;;;;;;;5.74;57.12;97715.78;4922860;28;20730;-78
2023/10/16 03:15:29;;;;;;;1.45;0.73;;;;;;;5.68;56.49;97710.63;4926886;28;20294;-77
2023/10/16 03:17:54;;;;;;;0.95;0.63;;;;;;;5.63;56.46;97706.81;4943958;28;20207;-78
2023/10/16 03:20:28;;;;;;;1.33;0.80;;;;;;;5.61;57.44;97706.22;4909092;28;20193;-78
2023/10/16 03:22:53;;;;;;;1.83;0.70;;;;;;;5.69;57.64;97713.00;4926709;28;20255;-78
2023/10/16 03:25:28;;;;;;;1.23;0.70;;;;;;;5.73;56.92;97711.59;4925075;28;20294;-77
2023/10/16 03:27:56;;;;;;;1.15;0.82;;;;;;;5.70;57.26;97708.63;4924114;28;20255;-78
2023/10/16 03:30:27;;;;;;;1.88;0.82;;;;;;;5.80;57.69;97712.38;4910848;28;20304;-78
2023/10/16 03:32:53;;;;;;;1.58;1.00;;;;;;;5.69;58.59;97713.00;4941427;28;20195;-78
2023/10/16 03:35:26;;;;;;;1.88;1.67;;;;;;;5.67;58.36;97709.81;4905587;28;20631;-77
2023/10/16 03:37:55;;;;;;;1.77;1.15;;;;;;;5.75;57.78;97707.03;4940261;28;20201;-78
2023/10/16 03:40:21;;;;;;;1.52;1.05;;;;;;;5.82;57.58;97718.16;4923014;28;20195;-78
2023/10/16 03:42:47;;;;;;;2.47;1.10;;;;;;;5.76;57.38;97718.19;4909880;28;20242;-78
2023/10/16 03:45:16;;;;;;;1.38;0.88;;;;;;;5.67;57.06;97706.44;4940608;28;20283;-78
2023/10/16 03:47:42;;;;;;;1.65;0.60;;;;;;;5.75;56.52;97708.81;4910754;28;20097;-78
2023/10/16 03:50:08;;;;;;;1.60;0.52;;;;;;;5.74;56.52;97708.03;4921754;28;20184;-78
2023/10/16 03:52:35;;;;;;;1.80;0.68;;;;;;;5.65;56.55;97705.84;4920851;28;20275;-78
2023/10/16 03:55:22;;;;;;;1.27;0.68;;;;;;;5.47;57.64;97698.69;4921559;28;20188;-78
2023/10/16 03:57:46;;;;;;;1.55;0.70;;;;;;;5.54;57.86;97704.66;4923695;28;20158;-78
2023/10/16 04:00:14;;;;;;;2.50;1.70;;;;;;;5.50;58.41;97706.84;4940474;28;20295;-78
2023/10/16 04:02:41;;;;;;;3.78;1.85;;;;;;;5.51;58.57;97700.66;4909908;28;20643;-77
2023/10/16 04:05:27;;;;;;;3.53;2.53;;;;;;;5.63;57.74;97698.28;4903654;28;20189;-78
2023/10/16 04:07:52;;;;;;;8.23;5.90;;;;;;;5.68;57.64;97693.31;4918805;28;20280;-78
2023/10/16 04:10:53;;;;;;;19.27;13.55;;;;;;;5.68;58.11;97684.78;4925718;28;20270;-77
2023/10/16 04:13:12;;;;;;;23.85;14.15;;;;;;;5.73;57.61;97692.72;4924030;28;20255;-78
2023/10/16 04:18:27;;;;;;;9.23;6.70;;;;;;;5.74;57.97;97684.78;4940756;28;20579;-78
2023/10/16 04:42:49;;;;;;;7.15;4.03;;;;;;;6.10;57.76;97685.34;4887093;28;20636;-78
2023/10/16 04:50:30;;;;;;;6.60;3.50;;;;;;;5.97;57.81;97678.41;4957574;28;20208;-78
2023/10/16 06:14:34;;;;;;;18.85;15.63;;;;;;;5.63;58.69;97657.75;4906683;28;20152;-81
2023/10/16 06:17:00;;;;;;;8.20;3.90;;;;;;;5.63;59.05;97656.97;4912851;28;20275;-80
2023/10/16 06:19:26;;;;;;;7.82;6.85;;;;;;;5.63;59.66;97656.97;4927985;28;20239;-80
2023/10/16 06:21:54;;;;;;;4.75;4.32;;;;;;;5.70;59.12;97664.69;4919843;28;20371;-79
2023/10/16 06:24:38;;;;;;;4.15;2.28;;;;;;;5.76;58.59;97662.13;4911491;28;20263;-79
2023/10/16 06:27:12;;;;;;;4.78;2.58;;;;;;;5.76;60.27;97664.69;4926966;28;20727;-79
2023/10/16 06:29:49;;;;;;;7.47;5.38;;;;;;;5.86;60.43;97674.63;4913811;28;20216;-79
2023/10/16 06:32:18;;;;;;;9.43;6.15;;;;;;;6.05;60.04;97669.63;4911191;28;20295;-79
2023/10/16 06:35:16;;;;;;;7.60;6.07;;;;;;;6.18;59.47;97675.56;4943051;28;20715;-79
2023/10/16 06:37:38;;;;;;;5.97;4.30;;;;;;;6.17;60.43;97666.22;4913658;28;20336;-79
2023/10/16 06:40:16;;;;;;;6.00;3.35;;;;;;;6.24;60.30;97670.56;4908940;28;20257;-79
2023/10/16 06:42:47;;;;;;;11.23;6.47;;;;;;;6.28;60.06;97667.38;4927198;28;20201;-79
2023/10/16 06:45:19;;;;;;;9.02;5.70;;;;;;;6.09;59.56;97674.22;4897948;28;20185;-80
2023/10/16 06:47:48;;;;;;;12.15;6.20;;;;;;;6.20;59.16;97670.19;4894116;28;20162;-80
2023/10/16 06:52:49;;;;;;;6.95;5.20;;;;;;;6.30;59.52;97659.44;4908433;28;20195;-80
2023/10/16 06:55:14;;;;;;;7.72;5.45;;;;;;;6.28;59.86;97664.81;4895556;28;20261;-80
2023/10/16 06:57:40;;;;;;;8.13;4.50;;;;;;;6.34;59.60;97676.09;4910489;28;20562;-80
2023/10/16 07:00:09;;;;;;;6.43;3.70;;;;;;;6.27;60.45;97678.75;4892818;28;20276;-80
2023/10/16 07:02:36;;;;;;;4.78;2.53;;;;;;;6.37;61.60;97673.13;4908919;28;20268;-80
2023/10/16 07:05:05;;;;;;;3.47;2.13;;;;;;;6.38;61.95;97675.50;4926251;28;20212;-80
2023/10/16 07:07:30;;;;;;;3.92;2.25;;;;;;;6.51;61.78;97679.84;4897056;28;20678;-80
2023/10/16 07:09:56;;;;;;;4.53;2.30;;;;;;;6.70;61.67;97685.13;4913196;28;20325;-79
2023/10/16 07:12:22;;;;;;;6.50;2.65;;;;;;;6.87;61.81;97672.50;4920470;28;20085;-79
2023/10/16 07:15:01;;;;;;;5.00;2.53;;;;;;;7.07;61.97;97687.91;4936553;28;20186;-80
2023/10/16 07:17:29;;;;;;;4.43;2.15;;;;;;;7.21;61.28;97697.19;4927580;28;20272;-79
2023/10/16 07:20:01;;;;;;;4.28;2.17;;;;;;;7.34;61.48;97693.72;4939740;28;20236;-80
2023/10/16 07:22:32;;;;;;;4.38;2.13;;;;;;;7.48;60.84;97689.22;4918473;28;20282;-79
2023/10/16 07:25:23;;;;;;;8.10;2.97;;;;;;;7.62;61.53;97695.09;4925946;28;20699;-80
2023/10/16 07:27:49;;;;;;;5.88;3.05;;;;;;;7.79;61.96;97697.94;4920665;28;20331;-79
2023/10/16 07:30:23;;;;;;;8.80;3.88;;;;;;;7.90;61.33;97697.25;4941415;28;20640;-80
2023/10/16 07:32:52;;;;;;;6.03;3.20;;;;;;;7.94;60.43;97695.03;4926984;28;20204;-79
2023/10/16 07:35:23;;;;;;;5.25;3.00;;;;;;;7.97;60.97;97687.63;4908130;28;20185;-79
2023/10/16 07:37:55;;;;;;;6.97;3.00;;;;;;;8.12;60.63;97695.03;4890284;28;20216;-79
2023/10/16 07:40:25;;;;;;;6.15;2.85;;;;;;;8.16;61.42;97705.78;4941861;28;20737;-81
2023/10/16 07:42:52;;;;;;;6.40;3.40;;;;;;;8.20;60.70;97693.97;4925737;28;20621;-79
2023/10/16 07:45:21;;;;;;;5.43;2.65;;;;;;;8.46;60.45;97699.91;4927077;28;20166;-79
2023/10/16 07:47:51;;;;;;;5.78;3.00;;;;;;;8.52;60.12;97704.25;4910072;28;20196;-79
2023/10/16 07:50:16;;;;;;;7.38;3.33;;;;;;;8.59;60.83;97710.13;4924943;28;20204;-79
2023/10/16 07:52:43;;;;;;;7.28;3.47;;;;;;;8.63;60.11;97700.91;4926182;28;20684;-80
2023/10/16 07:55:18;;;;;;;5.18;3.25;;;;;;;8.54;60.65;97692.63;4926156;28;20193;-80
2023/10/16 07:57:47;;;;;;;7.72;3.20;;;;;;;8.75;60.61;97693.16;4926651;28;20114;-80
2023/10/16 08:00:15;;;;;;;7.45;3.33;;;;;;;8.90;59.73;97696.16;4886252;28;20225;-79
2023/10/16 08:02:47;;;;;;;7.25;3.08;;;;;;;8.97;59.74;97698.66;4906389;28;20335;-80
2023/10/16 08:05:15;;;;;;;7.25;3.22;;;;;;;9.03;60.14;97691.78;4906164;28;20325;-79
2023/10/16 08:07:46;;;;;;;7.78;3.75;;;;;;;9.13;59.64;97689.44;4919735;28;20694;-79
2023/10/16 08:12:56;;;;;;;7.40;3.57;;;;;;;9.23;59.27;97699.31;4940998;28;20232;-80
2023/10/16 08:15:22;;;;;;;6.75;3.25;;;;;;;9.15;59.74;97696.03;4918896;28;20173;-80
2023/10/16 08:17:47;;;;;;;6.93;3.42;;;;;;;9.32;59.47;97687.56;4942142;28;20272;-79
2023/10/16 08:20:17;;;;;;;5.50;2.83;;;;;;;9.45;59.39;97689.19;4925564;28;20736;-79
2023/10/16 08:22:44;;;;;;;7.68;3.70;;;;;;;9.62;59.46;97699.72;4910285;28;20200;-79
2023/10/16 08:25:20;;;;;;;5.30;2.88;;;;;;;9.70;59.40;97696.81;4928055;28;20242;-80
2023/10/16 08:27:48;;;;;;;5.90;3.00;;;;;;;9.78;59.00;97691.25;4906568;28;20652;-80
2023/10/16 08:33:07;;;;;;;4.87;2.67;;;;;;;10.03;58.29;97687.63;4957845;28;20204;-79
2023/10/16 08:35:38;;;;;;;4.93;2.58;;;;;;;10.08;57.96;97696.31;4905710;28;20210;-79
2023/10/16 08:38:14;;;;;;;5.93;2.50;;;;;;;10.07;57.64;97689.53;4890880;28;20208;-80
2023/10/16 08:40:46;;;;;;;6.05;2.88;;;;;;;9.81;58.14;97690.00;4906431;28;20202;-81
2023/10/16 08:43:17;;;;;;;6.03;2.50;;;;;;;9.90;58.75;97699.84;4911322;28;20178;-80
2023/10/16 08:45:49;;;;;;;7.68;3.22;;;;;;;9.93;58.33;97691.56;4918882;28;20212;-81
2023/10/16 08:48:18;;;;;;;8.10;2.33;;;;;;;10.02;58.07;97686.03;4933587;28;20209;-81
2023/10/16 08:50:52;;;;;;;7.45;2.33;;;;;;;10.11;58.59;97698.47;4898537;28;20167;-79
2023/10/16 08:53:31;;;;;;;5.15;2.58;;;;;;;10.11;57.37;97689.91;4892497;28;20170;-82
2023/10/16 08:56:07;;;;;;;3.47;1.88;;;;;;;10.08;57.20;97696.31;4926971;28;20256;-79
2023/10/16 08:58:41;;;;;;;5.75;2.17;;;;;;;10.16;57.29;97691.78;4936011;28;20190;-81
2023/10/16 09:01:10;;;;;;;3.97;2.28;;;;;;;10.36;57.00;97691.47;4895229;28;20184;-81
2023/10/16 09:03:44;;;;;;;4.95;2.03;;;;;;;10.58;57.27;97695.03;4939444;28;20370;-80
2023/10/16 09:06:13;;;;;;;6.10;2.22;;;;;;;10.66;56.51;97689.44;4917607;28;20326;-81
2023/10/16 09:08:41;;;;;;;3.70;1.75;;;;;;;10.68;55.62;97686.63;4897566;28;20154;-79
2023/10/16 09:11:07;;;;;;;4.85;1.75;;;;;;;10.81;55.23;97681.13;4913009;28;20288;-81
2023/10/16 09:13:35;;;;;;;2.97;1.13;;;;;;;10.77;54.69;97681.81;4897621;28;20201;-81
2023/10/16 09:16:11;;;;;;;3.97;1.23;;;;;;;10.89;54.44;97694.81;4935526;28;20245;-79
2023/10/16 09:18:37;;;;;;;3.92;1.77;;;;;;;10.93;54.43;97691.47;4893398;28;20852;-81
2023/10/16 09:21:13;;;;;;;4.65;1.45;;;;;;;11.07;53.99;97694.63;4886481;28;20194;-78
2023/10/16 09:23:40;;;;;;;3.40;1.10;;;;;;;11.02;52.60;97690.09;4929460;28;20666;-81
2023/10/16 09:26:07;;;;;;;2.60;1.30;;;;;;;11.06;52.92;97693.81;4943135;28;20311;-80
2023/10/16 09:28:33;;;;;;;1.65;1.05;;;;;;;11.13;53.06;97685.84;4929945;28;20201;-80
2023/10/16 09:31:02;;;;;;;3.20;1.33;;;;;;;11.16;51.56;97668.97;4910060;28;20214;-81
2023/10/16 09:33:27;;;;;;;2.83;1.00;;;;;;;11.16;52.28;97679.38;4906032;28;20183;-78
2023/10/16 09:36:00;;;;;;;2.50;1.17;;;;;;;11.26;51.39;97671.72;4894372;28;20244;-81
2023/10/16 09:38:32;;;;;;;1.30;0.93;;;;;;;11.48;51.88;97671.81;4898069;28;20120;-81
2023/10/16 09:43:56;;;;;;;3.80;0.88;;;;;;;12.04;49.48;97671.06;4915530;28;20753;-79
2023/10/16 09:49:23;;;;;;;2.15;0.98;;;;;;;12.36;48.80;97668.59;4911760;28;20280;-80
2023/10/16 09:51:59;;;;;;;2.10;0.93;;;;;;;12.63;48.73;97680.88;4907893;28;20204;-82
2023/10/16 09:54:30;;;;;;;1.48;1.00;;;;;;;13.08;47.40;97672.72;4912911;28;20208;-81
2023/10/16 09:56:59;;;;;;;1.90;0.73;;;;;;;12.97;47.87;97659.81;4905445;28;20273;-83
2023/10/16 09:59:32;;;;;;;2.38;0.90;;;;;;;13.47;46.44;97669.94;4960744;28;20283;-80
2023/10/16 10:02:05;;;;;;;2.58;1.02;;;;;;;13.93;45.07;97666.84;4905404;28;20496;-80
2023/10/16 10:04:43;;;;;;;3.63;1.15;;;;;;;13.98;44.13;97664.25;4886328;28;20243;-78
2023/10/16 10:07:18;;;;;;;2.05;0.98;;;;;;;14.15;44.50;97661.44;4923815;28;20648;-80
2023/10/16 10:09:47;;;;;;;2.25;0.60;;;;;;;14.07;43.26;97667.19;4939272;28;20736;-81
2023/10/16 10:12:23;;;;;;;2.47;0.77;;;;;;;14.29;43.88;97671.44;4894984;28;20192;-79
2023/10/16 10:15:12;;;;;;;1.33;0.70;;;;;;;14.12;43.19;97659.34;4938313;28;20337;-79
2023/10/16 10:17:39;;;;;;;2.38;0.70;;;;;;;14.19;43.19;97664.34;4897272;28;20185;-81
2023/10/16 10:20:09;;;;;;;2.10;0.70;;;;;;;14.39;43.25;97663.63;4928044;28;20557;-81
2023/10/16 10:22:36;;;;;;;2.95;0.90;;;;;;;13.81;41.19;97656.56;4904122;28;20637;-82
2023/10/16 10:25:08;;;;;;;1.98;0.70;;;;;;;13.59;42.27;97661.13;4894495;28;20165;-78
2023/10/16 10:27:41;;;;;;;1.30;0.55;;;;;;;13.74;42.85;97655.97;4917489;28;20111;-80
2023/10/16 10:30:10;;;;;;;1.27;0.55;;;;;;;14.23;41.18;97660.16;4913924;28;20276;-80
2023/10/16 10:32:37;;;;;;;2.00;0.60;;;;;;;14.24;40.95;97652.06;4927758;28;20173;-80
2023/10/16 10:35:26;;;;;;;2.05;0.55;;;;;;;14.56;41.34;97650.31;4892563;28;20117;-79
2023/10/16 10:38:17;;;;;;;0.85;0.60;;;;;;;14.93;39.05;97646.78;4907906;28;20179;-81
2023/10/16 10:41:05;;;;;;;0.85;0.60;;;;;;;15.06;38.78;97650.72;4914007;28;20194;-80
2023/10/16 10:43:50;;;;;;;1.42;0.65;;;;;;;15.17;39.87;97637.34;4923191;28;20216;-80
2023/10/16 10:46:22;;;;;;;2.22;0.70;;;;;;;15.37;38.11;97633.16;4921778;28;20220;-80
2023/10/16 10:48:47;;;;;;;0.77;0.50;;;;;;;15.62;37.89;97636.78;4921896;28;20537;-79
2023/10/16 10:51:16;;;;;;;2.38;0.80;;;;;;;15.62;36.79;97621.81;4908335;28;20372;-80
2023/10/16 10:53:57;;;;;;;1.85;0.60;;;;;;;15.69;37.99;97624.94;4893311;28;20161;-80
2023/10/16 10:56:40;;;;;;;1.35;0.63;;;;;;;15.71;37.28;97624.69;4894654;28;20360;-81
2023/10/16 10:59:10;;;;;;;1.17;0.52;;;;;;;15.79;37.44;97612.88;4911015;28;20609;-82
2023/10/16 11:01:54;;;;;;;1.17;0.52;;;;;;;15.87;37.51;97607.88;4926686;28;20679;-79
2023/10/16 11:04:21;;;;;;;1.33;1.20;;;;;;;16.02;37.09;97598.34;4900579;28;20275;-80
2023/10/16 11:06:49;;;;;;;4.13;0.88;;;;;;;16.26;37.62;97604.56;4912998;28;20280;-81
2023/10/16 11:09:18;;;;;;;0.82;0.60;;;;;;;17.02;35.67;97594.66;4925787;28;20599;-81
2023/10/16 11:11:48;;;;;;;1.27;0.60;;;;;;;17.45;36.00;97593.22;4895752;28;20139;-79
2023/10/16 11:14:14;;;;;;;2.15;0.90;;;;;;;17.99;34.86;97586.06;4929998;28;20677;-79
2023/10/16 11:16:48;;;;;;;2.40;0.68;;;;;;;18.66;32.88;97589.41;4893918;28;20150;-80
2023/10/16 11:19:27;;;;;;;3.90;1.20;;;;;;;18.61;32.05;97581.56;4893599;28;20723;-79
2023/10/16 11:21:55;;;;;;;2.17;0.70;;;;;;;18.94;31.29;97588.75;4925710;28;20702;-78
2023/10/16 11:24:24;;;;;;;1.70;0.70;;;;;;;18.99;31.89;97578.13;4925587;28;20628;-80
2023/10/16 11:26:52;;;;;;;1.15;0.75;;;;;;;19.22;31.04;97579.06;4913571;28;20188;-80
2023/10/16 11:29:19;;;;;;;2.20;0.77;;;;;;;19.21;31.00;97565.06;4925089;28;20288;-78
2023/10/16 11:31:44;;;;;;;0.73;0.50;;;;;;;18.42;32.01;97559.69;4912640;28;20210;-78
2023/10/16 11:34:12;;;;;;;3.22;0.80;;;;;;;18.51;31.04;97564.03;4927789;28;20219;-78
2023/10/16 11:36:39;;;;;;;1.23;0.57;;;;;;;18.69;30.42;97561.66;4906094;28;20682;-78
2023/10/16 11:39:07;;;;;;;1.77;0.93;;;;;;;18.44;31.69;97557.53;4917983;28;20170;-78
2023/10/16 11:41:38;;;;;;;1.08;0.70;;;;;;;18.87;31.28;97563.53;4887895;28;20677;-80
2023/10/16 11:44:15;;;;;;;0.77;0.50;;;;;;;19.23;28.44;97551.59;4922903;28;20212;-80
2023/10/16 11:46:44;;;;;;;1.20;0.70;;;;;;;20.02;28.98;97546.13;4894619;28;20646;-79
2023/10/16 11:51:47;;;;;;;1.63;0.68;;;;;;;20.21;28.73;97545.22;4900308;28;20639;-79
2023/10/16 11:54:21;;;;;;;2.80;1.33;;;;;;;20.83;27.72;97525.31;4901194;28;20265;-80
2023/10/16 11:56:53;;;;;;;1.02;0.60;;;;;;;21.35;25.83;97530.84;4905845;28;20229;-79
2023/10/16 11:59:21;;;;;;;0.82;0.60;;;;;;;21.53;26.63;97525.66;4889657;28;20270;-80
2023/10/16 12:01:51;;;;;;;1.73;0.70;;;;;;;21.54;26.83;97528.00;4888435;28;20655;-80
2023/10/16 12:04:19;;;;;;;0.73;0.70;;;;;;;20.35;27.99;97524.00;4929141;28;20293;-79
2023/10/16 12:06:45;;;;;;;1.35;0.90;;;;;;;19.18;28.92;97520.00;4894829;28;20205;-78
2023/10/16 12:09:13;;;;;;;0.98;0.60;;;;;;;18.78;29.70;97536.22;4902120;28;20212;-79
2023/10/16 12:11:42;;;;;;;1.20;0.60;;;;;;;17.88;31.91;97527.47;4923627;28;20239;-79
2023/10/16 12:14:13;;;;;;;1.40;0.73;;;;;;;17.10;32.32;97516.19;4908481;28;20208;-79
2023/10/16 12:16:44;;;;;;;1.35;0.85;;;;;;;16.83;33.24;97523.50;4930787;28;20193;-78
2023/10/16 12:19:11;;;;;;;1.17;0.50;;;;;;;16.76;33.66;97511.69;4905771;28;20221;-78
2023/10/16 12:21:37;;;;;;;1.70;0.60;;;;;;;16.63;33.44;97507.88;4941641;28;20357;-78
2023/10/16 12:24:04;;;;;;;1.33;0.77;;;;;;;16.54;33.22;97512.94;4908251;28;20264;-78
2023/10/16 12:26:30;;;;;;;0.95;0.60;;;;;;;16.20;33.47;97497.94;4905433;28;20293;-79
2023/10/16 12:28:59;;;;;;;0.73;0.57;;;;;;;16.36;33.78;97495.97;4889581;28;20251;-79
2023/10/16 12:31:25;;;;;;;1.52;0.70;;;;;;;16.21;34.14;97496.06;4951826;28;20102;-78
2023/10/16 12:33:51;;;;;;;1.80;0.70;;;;;;;15.83;34.31;97491.28;4910128;28;20788;-78
2023/10/16 12:36:18;;;;;;;1.10;0.80;;;;;;;15.79;34.54;97487.66;4925929;28;20178;-77
2023/10/16 12:38:44;;;;;;;1.52;0.63;;;;;;;15.49;35.10;97489.31;4929184;28;20647;-78
2023/10/16 12:41:10;;;;;;;1.02;0.75;;;;;;;15.39;35.31;97481.47;4908411;28;20106;-79
2023/10/16 12:43:36;;;;;;;1.73;0.50;;;;;;;15.43;35.53;97479.88;4909781;28;20207;-78
2023/10/16 12:46:02;;;;;;;2.45;0.60;;;;;;;15.53;34.80;97477.22;4901688;28;20646;-78
2023/10/16 12:48:30;;;;;;;1.65;0.70;;;;;;;15.73;35.55;97480.84;4911766;28;20216;-78
2023/10/16 12:50:59;;;;;;;1.05;0.57;;;;;;;15.83;34.88;97475.53;4928583;28;20650;-80
2023/10/16 12:53:31;;;;;;;1.05;0.68;;;;;;;15.81;35.18;97471.63;4909537;28;20103;-78
2023/10/16 12:55:58;;;;;;;2.03;0.90;;;;;;;15.49;34.97;97475.41;4921845;28;20196;-78
2023/10/16 12:58:27;;;;;;;0.77;0.60;;;;;;;15.49;34.70;97470.16;4909107;28;20207;-79
2023/10/16 13:00:52;;;;;;;0.95;0.65;;;;;;;15.60;34.48;97460.41;4940337;28;20256;-79
2023/10/16 13:03:21;;;;;;;1.88;0.75;;;;;;;15.77;33.17;97455.63;4892734;28;20374;-78
2023/10/16 13:05:49;;;;;;;1.50;0.68;;;;;;;15.79;35.26;97450.88;4890289;28;20215;-78
2023/10/16 13:08:17;;;;;;;1.45;0.40;;;;;;;15.65;34.64;97453.28;4925599;28;20196;-78
2023/10/16 13:10:43;;;;;;;1.67;0.77;;;;;;;15.65;34.14;97442.78;4919755;28;20220;-79
2023/10/16 13:13:09;;;;;;;1.30;0.65;;;;;;;15.84;34.06;97442.97;4894913;28;20367;-80
2023/10/16 13:15:35;;;;;;;1.10;0.50;;;;;;;15.69;34.40;97445.66;4909973;28;20169;-78
2023/10/16 13:18:01;;;;;;;2.67;0.73;;;;;;;15.30;34.96;97435.84;4931962;28;20212;-78
2023/10/16 13:20:29;;;;;;;2.30;0.65;;;;;;;15.50;35.97;97440.25;4911612;28;20625;-78
2023/10/16 13:22:56;;;;;;;1.20;0.63;;;;;;;15.44;35.18;97439.47;4927692;28;20204;-79
2023/10/16 13:25:30;;;;;;;1.27;0.82;;;;;;;15.49;34.34;97434.22;4911871;28;20247;-78
2023/10/16 13:27:57;;;;;;;1.05;0.73;;;;;;;15.57;35.19;97438.09;4913029;28;20369;-78
2023/10/16 13:30:22;;;;;;;1.52;0.70;;;;;;;15.67;36.03;97445.94;4908937;28;20227;-80
2023/10/16 13:32:48;;;;;;;1.00;0.60;;;;;;;15.67;34.66;97443.31;4927404;28;20209;-81
2023/10/16 13:35:18;;;;;;;1.25;0.80;;;;;;;15.38;35.74;97451.03;4903825;28;20625;-81
2023/10/16 13:37:48;;;;;;;1.23;0.55;;;;;;;15.42;35.97;97449.47;4934448;28;20197;-84
2023/10/16 13:40:20;;;;;;;2.45;1.00;;;;;;;15.34;35.87;97452.63;4916691;28;20098;-81
2023/10/16 13:43:11;;;;;;;3.25;0.80;;;;;;;15.35;35.90;97448.94;4948153;28;20692;-82
2023/10/16 13:45:38;;;;;;;2.58;0.90;;;;;;;15.19;35.59;97439.56;4929837;28;20585;-82
2023/10/16 13:48:04;;;;;;;2.88;1.02;;;;;;;15.03;35.20;97442.25;4913958;28;20217;-82
2023/10/16 13:50:30;;;;;;;2.00;1.23;;;;;;;15.12;36.16;97443.25;4921308;28;20267;-81
2023/10/16 13:52:58;;;;;;;1.95;1.08;;;;;;;14.96;36.17;97439.13;4935284;28;20295;-84
2023/10/16 13:55:24;;;;;;;2.88;1.20;;;;;;;15.13;36.71;97436.16;4902656;28;20413;-83
2023/10/16 13:57:50;;;;;;;1.65;1.45;;;;;;;15.41;35.02;97437.38;4950477;28;20210;-85
2023/10/16 14:00:31;;;;;;;2.58;0.98;;;;;;;15.24;35.04;97432.47;4899120;28;20236;-82
2023/10/16 14:05:47;;;;;;;2.90;1.15;;;;;;;14.86;35.86;97424.19;4903812;28;20259;-81